CheckWX is a tool to help pilots better visualize weather data.  It is not intended as a substitute for an official pre-flight weather briefing.

12:44:16 UTC

LIPS TAF
Istrana Airport
Istrana, Italy
TAF LIPS 261100Z 2612/2621 06007KT CAVOK TEMPO 2612/2616 08015KT

Mar-26@
12:00 UTC

Mar-26 @ 12:00 UTC

Mar-26@
21:00 UTC

Mar-26 @ 21:00 UTC

TAF LIPS 261100Z 2612/2621 06007KT CAVOK
Wind
  • 060° at 7 KTS
Conditions
No significant weather
Cloud Levels
  • No significant clouds

Mar-26@
12:00 UTC

Mar-26 @ 12:00 UTC

Mar-26@
16:00 UTC

Mar-26 @ 16:00 UTC

TEMPO 2612/2616 08015KT

Temporary

Temporary Changes expected for less than half the time period

Wind
  • 080° at 15 KTS